createdAt,value
2022-07-30T00:01:38.482Z,101735.50
2022-07-30T00:04:10.614Z,101740.00
2022-07-30T00:06:42.606Z,101736.47
2022-07-30T00:09:14.622Z,101737.47
2022-07-30T00:11:46.648Z,101734.25
2022-07-30T00:14:18.726Z,101733.38
2022-07-30T00:16:50.741Z,101727.16
2022-07-30T00:19:22.711Z,101730.72
2022-07-30T00:21:55.882Z,101728.03
2022-07-30T00:24:27.917Z,101726.19
2022-07-30T00:27:00.178Z,101730.72
2022-07-30T00:29:32.438Z,101722.72
2022-07-30T00:32:04.703Z,101722.81
2022-07-30T00:34:36.654Z,101716.78
2022-07-30T00:37:08.605Z,101722.28
2022-07-30T00:39:40.569Z,101716.09
2022-07-30T00:42:12.523Z,101714.44
2022-07-30T00:44:44.607Z,101712.78
2022-07-30T00:47:16.554Z,101707.63
2022-07-30T00:49:48.575Z,101713.06
2022-07-30T00:52:20.507Z,101710.56
2022-07-30T00:54:52.507Z,101708.78
2022-07-30T00:57:24.839Z,101708.88
2022-07-30T00:59:58.561Z,101706.38
2022-07-30T01:02:30.676Z,101704.75
2022-07-30T01:05:02.788Z,101696.13
2022-07-30T01:07:35.025Z,101702.31
2022-07-30T01:10:09.146Z,101697.91
2022-07-30T01:12:42.543Z,101696.16
2022-07-30T01:15:15.209Z,101697.28
2022-07-30T01:17:53.010Z,101690.38
2022-07-30T01:20:31.548Z,101687.72
2022-07-30T01:23:28.468Z,101684.22
2022-07-30T01:26:09.402Z,101683.41
2022-07-30T01:28:47.158Z,101678.97
2022-07-30T01:31:20.966Z,101672.81
2022-07-30T01:33:55.282Z,101666.69
2022-07-30T01:36:28.762Z,101671.06
2022-07-30T01:39:01.910Z,101669.59
2022-07-30T01:41:35.219Z,101666.13
2022-07-30T01:44:08.477Z,101662.59
2022-07-30T01:46:41.260Z,101669.59
2022-07-30T01:49:15.086Z,101666.94
2022-07-30T01:51:52.653Z,101668.53
2022-07-30T01:54:27.577Z,101666.03
2022-07-30T01:57:02.353Z,101651.09
2022-07-30T01:59:37.669Z,101654.72
2022-07-30T02:02:09.713Z,101650.44
2022-07-30T02:04:42.059Z,101643.50
2022-07-30T02:07:49.786Z,101653.28
2022-07-30T02:10:46.595Z,101654.28
2022-07-30T02:13:23.323Z,101654.38
2022-07-30T02:16:13.122Z,101655.31
2022-07-30T02:19:01.282Z,101649.28
2022-07-30T02:21:50.701Z,101648.59
2022-07-30T02:24:27.954Z,101653.16
2022-07-30T02:27:11.255Z,101653.06
2022-07-30T02:29:45.134Z,101651.31
2022-07-30T02:32:21.013Z,101649.53
2022-07-30T02:35:01.780Z,101650.50
2022-07-30T02:37:41.063Z,101646.16
2022-07-30T02:40:19.905Z,101645.31
2022-07-30T02:42:53.653Z,101647.16
2022-07-30T02:45:26.332Z,101649.00
2022-07-30T02:48:06.751Z,101653.59
2022-07-30T02:50:40.282Z,101649.22
2022-07-30T02:53:14.656Z,101652.06
2022-07-30T02:55:48.042Z,101651.19
2022-07-30T02:58:25.682Z,101653.84
2022-07-30T03:00:58.856Z,101659.13
2022-07-30T03:03:32.326Z,101660.13
2022-07-30T03:06:06.024Z,101652.19
2022-07-30T03:08:38.370Z,101656.63
2022-07-30T03:11:12.657Z,101656.63
2022-07-30T03:13:45.047Z,101662.91
2022-07-30T03:16:18.992Z,101664.75
2022-07-30T03:18:53.624Z,101663.94
2022-07-30T03:21:27.956Z,101668.41
2022-07-30T03:24:03.375Z,101665.13
2022-07-30T03:26:37.416Z,101667.78
2022-07-30T03:29:10.670Z,101664.34
2022-07-30T03:31:43.698Z,101663.53
2022-07-30T03:34:19.154Z,101660.81
2022-07-30T03:36:52.948Z,101664.28
2022-07-30T03:39:25.198Z,101658.03
2022-07-30T03:41:57.397Z,101666.78
2022-07-30T03:44:31.298Z,101673.84
2022-07-30T03:47:05.854Z,101664.16
2022-07-30T03:49:38.267Z,101663.34
2022-07-30T03:52:10.840Z,101665.16
2022-07-30T03:54:43.939Z,101659.97
2022-07-30T03:57:19.390Z,101663.38
2022-07-30T03:59:52.755Z,101656.25
2022-07-30T04:02:25.071Z,101659.06
2022-07-30T04:04:57.094Z,101665.22
2022-07-30T04:07:29.077Z,101657.28
2022-07-30T04:10:01.031Z,101659.91
2022-07-30T04:12:33.058Z,101667.78
2022-07-30T04:16:37.946Z,101668.75
2022-07-30T04:18:03.092Z,101675.97
2022-07-30T04:20:42.426Z,101669.72
2022-07-30T04:23:15.690Z,101670.59
2022-07-30T04:25:48.705Z,101684.66
2022-07-30T04:28:21.064Z,101685.50
2022-07-30T04:30:53.949Z,101681.09
2022-07-30T04:33:25.998Z,101679.44
2022-07-30T04:35:58.001Z,101684.66
2022-07-30T04:38:29.955Z,101683.88
2022-07-30T04:41:02.227Z,101684.75
2022-07-30T04:43:34.296Z,101681.91
2022-07-30T04:46:06.314Z,101687.13
2022-07-30T04:48:38.670Z,101687.00
2022-07-30T04:51:20.739Z,101687.75
2022-07-30T04:53:54.108Z,101692.09
2022-07-30T04:56:26.645Z,101690.28
2022-07-30T04:58:59.279Z,101689.34
2022-07-30T05:01:40.215Z,101697.16
2022-07-30T05:04:14.041Z,101696.13
2022-07-30T05:06:46.603Z,101690.66
2022-07-30T05:09:18.776Z,101708.25
2022-07-30T05:11:53.138Z,101704.56
2022-07-30T05:14:25.953Z,101698.22
2022-07-30T05:16:58.487Z,101692.84
2022-07-30T05:19:30.661Z,101701.53
2022-07-30T05:22:06.604Z,101704.03
2022-07-30T05:24:38.820Z,101710.94
2022-07-30T05:27:10.830Z,101703.69
2022-07-30T05:29:42.777Z,101707.16
2022-07-30T05:32:15.549Z,101708.78
2022-07-30T05:34:50.004Z,101711.38
2022-07-30T05:37:22.202Z,101714.44
2022-07-30T05:40:02.289Z,101710.66
2022-07-30T05:42:35.464Z,101708.16
2022-07-30T05:45:08.110Z,101712.72
2022-07-30T05:47:40.096Z,101710.88
2022-07-30T05:50:12.914Z,101718.75
2022-07-30T05:52:44.862Z,101715.50
2022-07-30T05:55:16.880Z,101717.41
2022-07-30T05:57:48.862Z,101721.88
2022-07-30T06:00:20.841Z,101723.88
2022-07-30T06:02:52.796Z,101721.31
2022-07-30T06:05:24.863Z,101727.53
2022-07-30T06:07:56.800Z,101733.72
2022-07-30T06:10:28.969Z,101741.66
2022-07-30T06:13:00.911Z,101746.91
2022-07-30T06:15:33.055Z,101748.69
2022-07-30T06:18:05.057Z,101736.25
2022-07-30T06:20:38.139Z,101731.91
2022-07-30T06:23:10.111Z,101739.88
2022-07-30T06:25:42.231Z,101752.50
2022-07-30T06:28:36.419Z,101748.44
2022-07-30T06:31:08.122Z,101752.91
2022-07-30T06:33:40.178Z,101759.84
2022-07-30T06:36:13.890Z,101766.78
2022-07-30T06:38:46.204Z,101766.59
2022-07-30T06:41:18.208Z,101764.81
2022-07-30T06:43:51.136Z,101763.63
2022-07-30T06:46:23.161Z,101776.56
2022-07-30T06:48:55.189Z,101766.56
2022-07-30T06:51:27.214Z,101762.75
2022-07-30T06:53:59.218Z,101761.59
2022-07-30T06:56:31.171Z,101757.09
2022-07-30T06:59:03.346Z,101757.88
2022-07-30T07:01:35.492Z,101760.94
2022-07-30T07:04:07.772Z,101761.38
2022-07-30T07:06:39.809Z,101759.16
2022-07-30T07:09:12.040Z,101769.06
2022-07-30T07:11:43.984Z,101770.19
2022-07-30T07:14:16.128Z,101770.75
2022-07-30T07:16:49.790Z,101769.97
2022-07-30T07:20:01.719Z,101760.72
2022-07-30T07:22:13.769Z,101762.31
2022-07-30T07:24:46.715Z,101761.81
2022-07-30T07:27:21.211Z,101767.13
2022-07-30T07:30:01.294Z,101766.75
2022-07-30T07:32:37.380Z,101759.09
2022-07-30T07:35:09.881Z,101764.63
2022-07-30T07:37:42.335Z,101754.72
2022-07-30T07:40:14.330Z,101762.25
2022-07-30T07:42:46.282Z,101750.16
2022-07-30T07:45:18.528Z,101755.38
2022-07-30T07:47:53.190Z,101751.84
2022-07-30T07:50:25.526Z,101750.41
2022-07-30T07:52:57.566Z,101750.22
2022-07-30T07:55:32.254Z,101743.59
2022-07-30T07:58:05.663Z,101748.94
2022-07-30T08:00:37.742Z,101750.22
2022-07-30T08:03:09.715Z,101751.22
2022-07-30T08:05:56.980Z,101751.47
2022-07-30T08:08:33.948Z,101754.63
2022-07-30T08:11:07.162Z,101752.53
2022-07-30T08:13:51.631Z,101744.69
2022-07-30T08:16:24.334Z,101742.75
2022-07-30T08:18:56.318Z,101741.63
2022-07-30T08:21:28.272Z,101737.25
2022-07-30T08:24:00.258Z,101737.38
2022-07-30T08:26:32.292Z,101742.50
2022-07-30T08:29:04.366Z,101736.19
2022-07-30T08:31:36.304Z,101733.78
2022-07-30T08:34:08.311Z,101737.69
2022-07-30T08:36:40.690Z,101738.03
2022-07-30T08:39:12.661Z,101739.16
2022-07-30T08:41:45.255Z,101740.53
2022-07-30T08:44:19.465Z,101742.16
2022-07-30T08:46:56.429Z,101742.06
2022-07-30T08:49:28.800Z,101746.69
2022-07-30T08:52:01.442Z,101739.81
2022-07-30T08:54:33.702Z,101748.47
2022-07-30T08:57:06.118Z,101747.75
2022-07-30T09:00:00.198Z,101750.84
2022-07-30T09:02:32.779Z,101753.97
2022-07-30T09:05:05.955Z,101752.94
2022-07-30T09:07:38.736Z,101756.25
2022-07-30T09:10:11.297Z,101758.13
2022-07-30T09:12:46.202Z,101760.97
2022-07-30T09:15:22.462Z,101772.91
2022-07-30T09:18:02.576Z,101770.38
2022-07-30T09:20:36.348Z,101770.94
2022-07-30T09:23:08.327Z,101764.47
2022-07-30T09:25:44.508Z,101766.03
2022-07-30T09:28:28.513Z,101752.53
2022-07-30T09:31:01.124Z,101754.50
2022-07-30T09:33:40.353Z,101758.50
2022-07-30T09:36:17.067Z,101758.31
2022-07-30T09:38:54.362Z,101760.22
2022-07-30T09:41:39.599Z,101759.31
2022-07-30T09:44:24.713Z,101764.41
2022-07-30T09:46:58.221Z,101761.56
2022-07-30T09:49:30.747Z,101762.56
2022-07-30T09:52:02.912Z,101761.25
2022-07-30T09:54:51.705Z,101757.84
2022-07-30T09:57:27.535Z,101759.41
2022-07-30T10:00:23.621Z,101753.81
2022-07-30T10:02:56.777Z,101752.88
2022-07-30T10:05:29.546Z,101758.22
2022-07-30T10:08:09.498Z,101755.47
2022-07-30T10:10:50.910Z,101759.81
2022-07-30T10:13:23.261Z,101758.09
2022-07-30T10:16:04.588Z,101754.66
2022-07-30T10:18:42.141Z,101754.81
2022-07-30T10:21:16.866Z,101760.19
2022-07-30T10:23:50.732Z,101759.88
2022-07-30T10:26:23.325Z,101748.28
2022-07-30T10:28:55.949Z,101755.63
2022-07-30T10:31:48.639Z,101757.81
2022-07-30T10:34:23.601Z,101746.38
2022-07-30T10:37:06.532Z,101753.78
2022-07-30T10:39:49.866Z,101763.41
2022-07-30T10:42:44.189Z,101758.28
2022-07-30T10:45:43.778Z,101760.63
2022-07-30T10:48:19.744Z,101756.31
2022-07-30T10:50:57.328Z,101748.44
2022-07-30T10:53:48.433Z,101750.41
2022-07-30T10:56:25.793Z,101748.25
2022-07-30T10:58:57.977Z,101748.31
2022-07-30T11:01:53.589Z,101749.41
2022-07-30T11:04:30.429Z,101746.28
2022-07-30T11:07:35.137Z,101749.44
2022-07-30T11:10:09.556Z,101747.22
2022-07-30T11:12:45.759Z,101750.69
2022-07-30T11:15:18.639Z,101747.44
2022-07-30T11:18:12.665Z,101741.06
2022-07-30T11:21:21.279Z,101739.53
2022-07-30T11:23:54.927Z,101748.78
2022-07-30T11:26:41.951Z,101740.59
2022-07-30T11:29:50.772Z,101736.13
2022-07-30T11:32:34.007Z,101735.84
2022-07-30T11:35:14.898Z,101737.47
2022-07-30T11:38:09.534Z,101738.53
2022-07-30T11:41:03.142Z,101737.75
2022-07-30T11:43:41.641Z,101731.84
2022-07-30T11:46:18.059Z,101726.38
2022-07-30T11:49:05.847Z,101734.06
2022-07-30T11:51:46.932Z,101727.78
2022-07-30T11:54:19.065Z,101727.22
2022-07-30T11:57:04.320Z,101721.38
2022-07-30T11:59:54.585Z,101725.47
2022-07-30T12:02:28.905Z,101720.94
2022-07-30T12:05:00.961Z,101719.91
2022-07-30T12:07:33.210Z,101728.66
2022-07-30T12:10:26.860Z,101727.47
2022-07-30T12:13:12.783Z,101729.34
2022-07-30T12:15:47.149Z,101726.84
2022-07-30T12:18:30.541Z,101733.06
2022-07-30T12:21:12.896Z,101730.75
2022-07-30T12:24:03.030Z,101735.50
2022-07-30T12:26:35.748Z,101734.22
2022-07-30T12:29:11.883Z,101735.97
2022-07-30T12:31:46.238Z,101723.03
2022-07-30T12:34:23.796Z,101728.97
2022-07-30T12:36:55.837Z,101732.84
2022-07-30T12:39:28.097Z,101728.22
2022-07-30T12:42:00.611Z,101728.84
2022-07-30T12:44:46.791Z,101732.09
2022-07-30T12:47:27.973Z,101731.00
2022-07-30T12:50:01.891Z,101731.22
2022-07-30T12:52:36.008Z,101732.25
2022-07-30T12:55:11.678Z,101726.97
2022-07-30T12:58:08.459Z,101726.78
2022-07-30T13:00:54.928Z,101724.28
2022-07-30T13:03:29.362Z,101729.38
2022-07-30T13:06:02.240Z,101729.56
2022-07-30T13:08:57.750Z,101713.75
2022-07-30T13:11:42.273Z,101716.59
2022-07-30T13:14:24.646Z,101715.47
2022-07-30T13:16:59.159Z,101727.09
2022-07-30T13:19:31.248Z,101720.44
2022-07-30T13:22:03.289Z,101721.13
2022-07-30T13:24:35.237Z,101714.41
2022-07-30T13:27:07.669Z,101719.78
2022-07-30T13:29:43.278Z,101715.56
2022-07-30T13:32:15.265Z,101718.91
2022-07-30T13:34:47.237Z,101715.66
2022-07-30T13:37:19.181Z,101715.28
2022-07-30T13:39:51.164Z,101711.63
2022-07-30T13:42:23.173Z,101708.81
2022-07-30T13:44:55.148Z,101709.56
2022-07-30T13:47:27.134Z,101722.00
2022-07-30T13:49:59.120Z,101714.69
2022-07-30T13:52:31.104Z,101718.72
2022-07-30T13:55:03.244Z,101714.75
2022-07-30T13:57:35.206Z,101711.53
2022-07-30T14:00:09.491Z,101711.28
2022-07-30T14:02:41.562Z,101706.41
2022-07-30T14:05:13.803Z,101705.53
2022-07-30T14:07:45.763Z,101709.22
2022-07-30T14:10:17.946Z,101712.09
2022-07-30T14:12:55.215Z,101706.06
2022-07-30T14:15:31.149Z,101700.13
2022-07-30T14:18:03.659Z,101706.03
2022-07-30T14:20:35.753Z,101717.84
2022-07-30T14:23:07.727Z,101712.06
2022-07-30T14:25:40.759Z,101709.38
2022-07-30T14:28:13.010Z,101711.66
2022-07-30T14:30:45.125Z,101708.53
2022-07-30T14:33:17.356Z,101713.47
2022-07-30T14:35:49.372Z,101701.06
2022-07-30T14:38:22.357Z,101703.63
2022-07-30T14:40:59.051Z,101700.50
2022-07-30T14:43:31.342Z,101696.75
2022-07-30T14:46:03.305Z,101694.59
2022-07-30T14:48:35.261Z,101693.22
2022-07-30T14:51:17.694Z,101693.31
2022-07-30T14:53:52.824Z,101694.81
2022-07-30T14:56:25.258Z,101684.84
2022-07-30T14:58:57.327Z,101684.41
2022-07-30T15:01:29.334Z,101678.88
2022-07-30T15:04:01.439Z,101686.25
2022-07-30T15:06:33.373Z,101690.09
2022-07-30T15:09:05.378Z,101686.84
2022-07-30T15:12:04.180Z,101690.88
2022-07-30T15:14:29.603Z,101683.13
2022-07-30T15:17:04.307Z,101691.94
2022-07-30T15:19:36.582Z,101690.16
2022-07-30T15:22:08.698Z,101692.72
2022-07-30T15:24:40.863Z,101690.38
2022-07-30T15:27:12.905Z,101687.28
2022-07-30T15:29:44.861Z,101679.84
2022-07-30T15:32:17.327Z,101679.47
2022-07-30T15:34:49.524Z,101676.63
2022-07-30T15:37:25.095Z,101674.03
2022-07-30T15:39:57.183Z,101667.53
2022-07-30T15:42:30.040Z,101667.69
2022-07-30T15:45:21.397Z,101678.44
2022-07-30T15:47:53.378Z,101670.50
2022-07-30T15:50:25.357Z,101668.16
2022-07-30T15:52:57.459Z,101675.88
2022-07-30T15:55:29.533Z,101672.00
2022-07-30T15:58:05.514Z,101673.47
2022-07-30T16:00:37.757Z,101674.31
2022-07-30T16:03:13.093Z,101666.75
2022-07-30T16:05:52.174Z,101674.44
2022-07-30T16:08:24.618Z,101676.53
2022-07-30T16:10:56.626Z,101674.09
2022-07-30T16:13:28.572Z,101671.28
2022-07-30T16:16:00.697Z,101677.78
2022-07-30T16:18:32.730Z,101680.00
2022-07-30T16:21:04.718Z,101681.22
2022-07-30T16:23:38.856Z,101677.88
2022-07-30T16:26:12.352Z,101687.84
2022-07-30T16:28:44.278Z,101679.63
2022-07-30T16:31:17.831Z,101684.78
2022-07-30T16:33:50.457Z,101679.69
2022-07-30T16:36:22.474Z,101679.78
2022-07-30T16:38:54.471Z,101674.03
2022-07-30T16:41:26.661Z,101682.56
2022-07-30T16:43:58.693Z,101674.53
2022-07-30T16:46:30.695Z,101675.78
2022-07-30T16:49:02.773Z,101678.25
2022-07-30T16:51:35.248Z,101688.13
2022-07-30T16:54:07.776Z,101693.88
2022-07-30T16:56:39.771Z,101698.06
2022-07-30T16:59:13.888Z,101707.06
2022-07-30T17:01:47.366Z,101705.53
2022-07-30T17:04:19.429Z,101716.16
2022-07-30T17:06:51.757Z,101720.84
2022-07-30T17:09:23.769Z,101731.41
2022-07-30T17:11:59.304Z,101738.31
2022-07-30T17:14:31.454Z,101743.91
2022-07-30T17:17:03.558Z,101754.88
2022-07-30T17:19:35.536Z,101755.03
2022-07-30T17:22:07.588Z,101756.50
2022-07-30T17:24:39.983Z,101767.63
2022-07-30T17:27:11.970Z,101768.63
2022-07-30T17:29:50.146Z,101775.06
2022-07-30T17:32:23.354Z,101781.06
2022-07-30T17:34:55.605Z,101788.94
2022-07-30T17:37:27.583Z,101793.22
2022-07-30T17:40:26.394Z,101782.16
2022-07-30T17:42:51.481Z,101782.38
2022-07-30T17:45:23.432Z,101788.63
2022-07-30T17:47:55.403Z,101786.03
2022-07-30T17:50:27.801Z,101790.25
2022-07-30T17:53:03.478Z,101795.44
2022-07-30T17:55:35.877Z,101787.31
2022-07-30T17:58:07.853Z,101796.47
2022-07-30T18:00:40.189Z,101796.22
2022-07-30T18:03:12.167Z,101798.97
2022-07-30T18:05:44.862Z,101803.09
2022-07-30T18:08:17.219Z,101797.72
2022-07-30T18:10:50.202Z,101804.25
2022-07-30T18:13:26.631Z,101814.91
2022-07-30T18:15:59.302Z,101811.25
2022-07-30T18:18:31.402Z,101810.97
2022-07-30T18:21:03.932Z,101813.66
2022-07-30T18:23:36.288Z,101817.97
2022-07-30T18:26:08.528Z,101812.91
2022-07-30T18:28:41.776Z,101809.44
2022-07-30T18:31:13.724Z,101810.19
2022-07-30T18:33:45.747Z,101812.59
2022-07-30T18:36:17.720Z,101811.63
2022-07-30T18:38:49.852Z,101819.78
2022-07-30T18:41:23.865Z,101814.03
2022-07-30T18:43:56.003Z,101820.56
2022-07-30T18:46:28.088Z,101815.47
2022-07-30T18:49:10.840Z,101816.91
2022-07-30T18:51:52.416Z,101818.53
2022-07-30T18:54:24.929Z,101822.25
2022-07-30T18:56:56.967Z,101818.66
2022-07-30T18:59:29.320Z,101823.13
2022-07-30T19:02:02.021Z,101820.56
2022-07-30T19:04:35.013Z,101822.59
2022-07-30T19:07:07.437Z,101828.97
2022-07-30T19:09:39.493Z,101826.66
2022-07-30T19:12:11.963Z,101827.75
2022-07-30T19:14:44.669Z,101824.34
2022-07-30T19:17:16.679Z,101829.75
2022-07-30T19:19:49.252Z,101836.84
2022-07-30T19:22:29.713Z,101836.00
2022-07-30T19:25:03.138Z,101833.56
2022-07-30T19:27:35.153Z,101838.94
2022-07-30T19:30:08.576Z,101841.59
2022-07-30T19:32:40.675Z,101849.06
2022-07-30T19:35:14.508Z,101853.63
2022-07-30T19:37:47.069Z,101853.81
2022-07-30T19:40:19.161Z,101861.97
2022-07-30T19:42:55.832Z,101865.56
2022-07-30T19:45:46.733Z,101860.69
2022-07-30T19:48:28.452Z,101867.13
2022-07-30T19:51:01.868Z,101876.94
2022-07-30T19:53:34.506Z,101882.22
2022-07-30T19:56:10.725Z,101878.56
2022-07-30T19:58:43.455Z,101889.28
2022-07-30T20:01:16.776Z,101883.19
2022-07-30T20:03:48.786Z,101888.44
2022-07-30T20:06:22.191Z,101899.25
2022-07-30T20:08:54.167Z,101897.63
2022-07-30T20:11:36.238Z,101893.78
2022-07-30T20:14:08.736Z,101895.47
2022-07-30T20:16:40.813Z,101894.78
2022-07-30T20:19:15.595Z,101902.78
2022-07-30T20:21:57.441Z,101899.16
2022-07-30T20:24:40.131Z,101900.16
2022-07-30T20:27:36.288Z,101906.44
2022-07-30T20:30:05.381Z,101907.06
2022-07-30T20:32:42.303Z,101914.25
2022-07-30T20:35:20.073Z,101920.44
2022-07-30T20:37:54.764Z,101917.06
2022-07-30T20:40:27.802Z,101910.00
2022-07-30T20:43:02.666Z,101919.00
2022-07-30T20:45:37.806Z,101922.72
2022-07-30T20:48:16.925Z,101925.38
2022-07-30T20:50:49.651Z,101933.69
2022-07-30T20:53:23.137Z,101928.28
2022-07-30T20:55:55.308Z,101930.25
2022-07-30T20:58:27.346Z,101927.84
2022-07-30T21:00:59.356Z,101924.63
2022-07-30T21:03:31.751Z,101927.19
2022-07-30T21:06:04.662Z,101921.97
2022-07-30T21:08:38.819Z,101924.72
2022-07-30T21:11:12.568Z,101924.69
2022-07-30T21:13:44.772Z,101923.34
2022-07-30T21:16:18.219Z,101924.50
2022-07-30T21:18:50.830Z,101927.06
2022-07-30T21:21:30.791Z,101927.00
2022-07-30T21:24:20.082Z,101918.41
2022-07-30T21:26:53.911Z,101920.22
2022-07-30T21:29:27.664Z,101918.34
2022-07-30T21:32:02.980Z,101921.88
2022-07-30T21:34:42.287Z,101922.75
2022-07-30T21:37:15.787Z,101908.78
2022-07-30T21:39:48.128Z,101907.81
2022-07-30T21:42:30.354Z,101905.38
2022-07-30T21:45:02.487Z,101901.72
2022-07-30T21:47:35.294Z,101910.47
2022-07-30T21:50:08.237Z,101910.47
2022-07-30T21:52:41.066Z,101916.75
2022-07-30T21:55:13.894Z,101919.34
2022-07-30T21:57:45.916Z,101912.19
2022-07-30T22:00:22.358Z,101911.47
2022-07-30T22:02:54.546Z,101913.25
2022-07-30T22:05:39.027Z,101917.56
2022-07-30T22:08:13.935Z,101915.69
2022-07-30T22:10:48.311Z,101915.97
2022-07-30T22:13:24.235Z,101915.75
2022-07-30T22:16:01.933Z,101913.88
2022-07-30T22:18:34.053Z,101904.94
2022-07-30T22:21:06.044Z,101908.50
2022-07-30T22:23:39.159Z,101911.13
2022-07-30T22:26:11.170Z,101902.19
2022-07-30T22:28:43.179Z,101903.06
2022-07-30T22:31:17.264Z,101906.59
2022-07-30T22:33:51.057Z,101908.38
2022-07-30T22:36:25.256Z,101904.84
2022-07-30T22:38:58.740Z,101908.47
2022-07-30T22:41:31.342Z,101898.81
2022-07-30T22:44:03.433Z,101905.03
2022-07-30T22:46:35.926Z,101897.16
2022-07-30T22:49:23.334Z,101896.38
2022-07-30T22:52:06.552Z,101900.00
2022-07-30T22:54:50.952Z,101886.72
2022-07-30T22:57:23.451Z,101890.25
2022-07-30T22:59:58.328Z,101880.63
2022-07-30T23:02:30.976Z,101879.72
2022-07-30T23:05:03.283Z,101890.53
2022-07-30T23:07:38.902Z,101883.44
2022-07-30T23:12:31.000Z,101887.88
2022-07-30T23:16:00.083Z,101871.94
2022-07-30T23:18:32.251Z,101861.31
2022-07-30T23:21:04.953Z,101862.16
2022-07-30T23:23:37.183Z,101859.50
2022-07-30T23:26:09.351Z,101855.03
2022-07-30T23:28:41.339Z,101859.38
2022-07-30T23:31:14.175Z,101862.03
2022-07-30T23:33:46.343Z,101860.31
2022-07-30T23:36:18.538Z,101865.47
2022-07-30T23:38:50.596Z,101858.34
2022-07-30T23:41:29.956Z,101859.31
2022-07-30T23:44:02.673Z,101856.69
2022-07-30T23:46:37.121Z,101851.38
2022-07-30T23:49:09.118Z,101857.47
2022-07-30T23:51:41.419Z,101852.16
2022-07-30T23:54:13.357Z,101857.44
2022-07-30T23:56:45.872Z,101851.38
2022-07-30T23:59:17.924Z,101850.47
